sensor_id;sensor_type;location;lat;lon;timestamp;P1;durP1;ratioP1;P2;durP2;ratioP2
72109;SDS011;59983;52.010;5.420;2023-06-10T00:00:05;9.15;;;8.10;;
72109;SDS011;59983;52.010;5.420;2023-06-10T00:02:33;9.60;;;8.77;;
72109;SDS011;59983;52.010;5.420;2023-06-10T00:04:59;8.57;;;7.60;;
72109;SDS011;59983;52.010;5.420;2023-06-10T00:07:26;8.17;;;7.43;;
72109;SDS011;59983;52.010;5.420;2023-06-10T00:09:53;8.88;;;7.97;;
72109;SDS011;59983;52.010;5.420;2023-06-10T00:12:21;8.13;;;7.43;;
72109;SDS011;59983;52.010;5.420;2023-06-10T00:14:48;8.38;;;7.57;;
72109;SDS011;59983;52.010;5.420;2023-06-10T00:17:16;8.70;;;7.95;;
72109;SDS011;59983;52.010;5.420;2023-06-10T00:19:43;8.30;;;7.33;;
72109;SDS011;59983;52.010;5.420;2023-06-10T00:22:09;8.38;;;7.70;;
72109;SDS011;59983;52.010;5.420;2023-06-10T00:24:37;8.43;;;7.63;;
72109;SDS011;59983;52.010;5.420;2023-06-10T00:27:04;8.38;;;7.68;;
72109;SDS011;59983;52.010;5.420;2023-06-10T00:29:31;10.68;;;8.05;;
72109;SDS011;59983;52.010;5.420;2023-06-10T00:31:58;8.30;;;7.67;;
72109;SDS011;59983;52.010;5.420;2023-06-10T00:34:25;7.40;;;6.88;;
72109;SDS011;59983;52.010;5.420;2023-06-10T00:36:51;8.48;;;7.80;;
72109;SDS011;59983;52.010;5.420;2023-06-10T00:39:18;8.65;;;7.13;;
72109;SDS011;59983;52.010;5.420;2023-06-10T00:41:44;8.10;;;7.30;;
72109;SDS011;59983;52.010;5.420;2023-06-10T00:44:11;7.67;;;6.87;;
72109;SDS011;59983;52.010;5.420;2023-06-10T00:46:38;8.48;;;7.38;;
72109;SDS011;59983;52.010;5.420;2023-06-10T00:49:04;8.32;;;7.63;;
72109;SDS011;59983;52.010;5.420;2023-06-10T00:51:32;7.65;;;7.10;;
72109;SDS011;59983;52.010;5.420;2023-06-10T00:53:59;7.50;;;6.68;;
72109;SDS011;59983;52.010;5.420;2023-06-10T00:56:25;11.10;;;6.90;;
72109;SDS011;59983;52.010;5.420;2023-06-10T00:58:54;7.55;;;6.78;;
72109;SDS011;59983;52.010;5.420;2023-06-10T01:01:21;7.68;;;7.05;;
72109;SDS011;59983;52.010;5.420;2023-06-10T01:03:48;8.55;;;7.68;;
72109;SDS011;59983;52.010;5.420;2023-06-10T01:06:18;7.50;;;6.90;;
72109;SDS011;59983;52.010;5.420;2023-06-10T01:08:57;9.27;;;7.03;;
72109;SDS011;59983;52.010;5.420;2023-06-10T01:11:34;7.85;;;7.05;;
72109;SDS011;59983;52.010;5.420;2023-06-10T01:14:07;7.85;;;7.25;;
72109;SDS011;59983;52.010;5.420;2023-06-10T01:16:35;8.25;;;7.45;;
72109;SDS011;59983;52.010;5.420;2023-06-10T01:19:03;8.10;;;7.50;;
72109;SDS011;59983;52.010;5.420;2023-06-10T01:21:30;8.10;;;6.30;;
72109;SDS011;59983;52.010;5.420;2023-06-10T01:24:00;7.68;;;7.07;;
72109;SDS011;59983;52.010;5.420;2023-06-10T01:26:30;8.55;;;7.40;;
72109;SDS011;59983;52.010;5.420;2023-06-10T01:29:07;7.32;;;6.30;;
72109;SDS011;59983;52.010;5.420;2023-06-10T01:32:21;7.07;;;6.28;;
72109;SDS011;59983;52.010;5.420;2023-06-10T01:34:32;6.77;;;6.17;;
72109;SDS011;59983;52.010;5.420;2023-06-10T01:36:59;9.70;;;6.88;;
72109;SDS011;59983;52.010;5.420;2023-06-10T01:39:26;7.50;;;6.85;;
72109;SDS011;59983;52.010;5.420;2023-06-10T01:41:54;7.28;;;6.68;;
72109;SDS011;59983;52.010;5.420;2023-06-10T01:44:22;7.40;;;6.80;;
72109;SDS011;59983;52.010;5.420;2023-06-10T01:46:49;6.77;;;6.20;;
72109;SDS011;59983;52.010;5.420;2023-06-10T01:49:16;7.82;;;7.05;;
72109;SDS011;59983;52.010;5.420;2023-06-10T01:51:42;8.45;;;6.88;;
72109;SDS011;59983;52.010;5.420;2023-06-10T01:54:09;7.78;;;7.10;;
72109;SDS011;59983;52.010;5.420;2023-06-10T01:56:35;7.15;;;6.53;;
72109;SDS011;59983;52.010;5.420;2023-06-10T01:59:02;7.67;;;7.17;;
72109;SDS011;59983;52.010;5.420;2023-06-10T02:01:29;6.75;;;6.00;;
72109;SDS011;59983;52.010;5.420;2023-06-10T02:03:56;7.43;;;6.68;;
72109;SDS011;59983;52.010;5.420;2023-06-10T02:06:22;7.38;;;6.78;;
72109;SDS011;59983;52.010;5.420;2023-06-10T02:08:49;6.95;;;6.18;;
72109;SDS011;59983;52.010;5.420;2023-06-10T02:11:15;7.03;;;6.37;;
72109;SDS011;59983;52.010;5.420;2023-06-10T02:13:42;8.80;;;6.45;;
72109;SDS011;59983;52.010;5.420;2023-06-10T02:16:09;7.20;;;6.45;;
72109;SDS011;59983;52.010;5.420;2023-06-10T02:18:41;7.18;;;6.57;;
72109;SDS011;59983;52.010;5.420;2023-06-10T02:21:09;7.68;;;7.00;;
72109;SDS011;59983;52.010;5.420;2023-06-10T02:23:36;7.30;;;6.47;;
72109;SDS011;59983;52.010;5.420;2023-06-10T02:26:03;7.63;;;6.90;;
72109;SDS011;59983;52.010;5.420;2023-06-10T02:28:30;6.95;;;6.32;;
72109;SDS011;59983;52.010;5.420;2023-06-10T02:30:56;7.03;;;6.40;;
72109;SDS011;59983;52.010;5.420;2023-06-10T02:33:23;6.60;;;6.00;;
72109;SDS011;59983;52.010;5.420;2023-06-10T02:35:50;6.93;;;6.33;;
72109;SDS011;59983;52.010;5.420;2023-06-10T02:38:17;6.72;;;6.13;;
72109;SDS011;59983;52.010;5.420;2023-06-10T02:40:44;10.00;;;6.38;;
72109;SDS011;59983;52.010;5.420;2023-06-10T02:43:11;6.78;;;6.18;;
72109;SDS011;59983;52.010;5.420;2023-06-10T02:45:37;6.85;;;6.07;;
72109;SDS011;59983;52.010;5.420;2023-06-10T02:48:04;6.47;;;5.97;;
72109;SDS011;59983;52.010;5.420;2023-06-10T02:50:30;8.68;;;6.63;;
72109;SDS011;59983;52.010;5.420;2023-06-10T02:52:57;7.28;;;6.60;;
72109;SDS011;59983;52.010;5.420;2023-06-10T02:55:23;6.65;;;6.13;;
72109;SDS011;59983;52.010;5.420;2023-06-10T02:57:52;7.80;;;6.18;;
72109;SDS011;59983;52.010;5.420;2023-06-10T03:00:20;7.53;;;6.60;;
72109;SDS011;59983;52.010;5.420;2023-06-10T03:02:47;7.47;;;6.80;;
72109;SDS011;59983;52.010;5.420;2023-06-10T03:05:15;8.60;;;6.93;;
72109;SDS011;59983;52.010;5.420;2023-06-10T03:07:43;7.85;;;7.25;;
72109;SDS011;59983;52.010;5.420;2023-06-10T03:10:09;7.88;;;6.95;;
72109;SDS011;59983;52.010;5.420;2023-06-10T03:12:36;7.17;;;6.47;;
72109;SDS011;59983;52.010;5.420;2023-06-10T03:15:03;8.02;;;6.82;;
72109;SDS011;59983;52.010;5.420;2023-06-10T03:17:30;7.53;;;6.93;;
72109;SDS011;59983;52.010;5.420;2023-06-10T03:19:56;6.72;;;6.10;;
72109;SDS011;59983;52.010;5.420;2023-06-10T03:22:23;10.35;;;6.80;;
72109;SDS011;59983;52.010;5.420;2023-06-10T03:24:49;6.30;;;5.73;;
72109;SDS011;59983;52.010;5.420;2023-06-10T03:27:17;8.10;;;7.35;;
72109;SDS011;59983;52.010;5.420;2023-06-10T03:29:44;8.00;;;7.05;;
72109;SDS011;59983;52.010;5.420;2023-06-10T03:32:10;6.97;;;6.28;;
72109;SDS011;59983;52.010;5.420;2023-06-10T03:34:37;8.25;;;6.88;;
72109;SDS011;59983;52.010;5.420;2023-06-10T03:37:04;10.27;;;6.20;;
72109;SDS011;59983;52.010;5.420;2023-06-10T03:39:32;7.60;;;6.90;;
72109;SDS011;59983;52.010;5.420;2023-06-10T03:41:58;7.72;;;7.05;;
72109;SDS011;59983;52.010;5.420;2023-06-10T03:44:25;7.15;;;6.50;;
72109;SDS011;59983;52.010;5.420;2023-06-10T03:46:54;7.00;;;6.15;;
72109;SDS011;59983;52.010;5.420;2023-06-10T03:49:22;6.83;;;5.90;;
72109;SDS011;59983;52.010;5.420;2023-06-10T03:51:53;8.55;;;6.53;;
72109;SDS011;59983;52.010;5.420;2023-06-10T03:54:20;8.05;;;6.68;;
72109;SDS011;59983;52.010;5.420;2023-06-10T03:56:46;6.80;;;6.22;;
72109;SDS011;59983;52.010;5.420;2023-06-10T03:59:14;9.43;;;7.18;;
72109;SDS011;59983;52.010;5.420;2023-06-10T04:01:41;9.43;;;6.97;;
72109;SDS011;59983;52.010;5.420;2023-06-10T04:04:08;9.88;;;7.28;;
72109;SDS011;59983;52.010;5.420;2023-06-10T04:06:34;7.97;;;7.18;;
72109;SDS011;59983;52.010;5.420;2023-06-10T04:09:01;6.53;;;5.93;;
72109;SDS011;59983;52.010;5.420;2023-06-10T04:11:28;6.65;;;5.95;;
72109;SDS011;59983;52.010;5.420;2023-06-10T04:13:55;6.67;;;6.07;;
72109;SDS011;59983;52.010;5.420;2023-06-10T04:16:21;8.43;;;6.70;;
72109;SDS011;59983;52.010;5.420;2023-06-10T04:18:48;8.82;;;7.18;;
72109;SDS011;59983;52.010;5.420;2023-06-10T04:21:14;6.55;;;5.95;;
72109;SDS011;59983;52.010;5.420;2023-06-10T04:23:41;7.22;;;6.10;;
72109;SDS011;59983;52.010;5.420;2023-06-10T04:26:07;7.30;;;6.13;;
72109;SDS011;59983;52.010;5.420;2023-06-10T04:28:34;7.53;;;6.25;;
72109;SDS011;59983;52.010;5.420;2023-06-10T04:31:02;8.93;;;6.90;;
72109;SDS011;59983;52.010;5.420;2023-06-10T04:33:30;6.82;;;6.22;;
72109;SDS011;59983;52.010;5.420;2023-06-10T04:35:57;7.30;;;6.60;;
72109;SDS011;59983;52.010;5.420;2023-06-10T04:38:24;6.87;;;6.23;;
72109;SDS011;59983;52.010;5.420;2023-06-10T04:40:50;10.50;;;7.43;;
72109;SDS011;59983;52.010;5.420;2023-06-10T04:43:17;6.55;;;5.97;;
72109;SDS011;59983;52.010;5.420;2023-06-10T04:45:44;7.63;;;6.90;;
72109;SDS011;59983;52.010;5.420;2023-06-10T04:48:13;8.35;;;6.40;;
72109;SDS011;59983;52.010;5.420;2023-06-10T04:50:40;7.87;;;7.20;;
72109;SDS011;59983;52.010;5.420;2023-06-10T04:53:06;6.63;;;6.00;;
72109;SDS011;59983;52.010;5.420;2023-06-10T04:55:33;8.32;;;6.70;;
72109;SDS011;59983;52.010;5.420;2023-06-10T04:58:00;7.53;;;6.10;;
72109;SDS011;59983;52.010;5.420;2023-06-10T05:00:27;9.27;;;6.15;;
72109;SDS011;59983;52.010;5.420;2023-06-10T05:02:53;7.30;;;6.60;;
72109;SDS011;59983;52.010;5.420;2023-06-10T05:05:22;11.02;;;6.53;;
72109;SDS011;59983;52.010;5.420;2023-06-10T05:07:49;7.68;;;6.40;;
72109;SDS011;59983;52.010;5.420;2023-06-10T05:10:15;7.20;;;6.50;;
72109;SDS011;59983;52.010;5.420;2023-06-10T05:12:42;7.38;;;6.50;;
72109;SDS011;59983;52.010;5.420;2023-06-10T05:15:08;8.53;;;6.07;;
72109;SDS011;59983;52.010;5.420;2023-06-10T05:17:36;8.85;;;7.05;;
72109;SDS011;59983;52.010;5.420;2023-06-10T05:20:03;7.30;;;6.50;;
72109;SDS011;59983;52.010;5.420;2023-06-10T05:22:30;6.55;;;6.03;;
72109;SDS011;59983;52.010;5.420;2023-06-10T05:24:57;6.93;;;5.95;;
72109;SDS011;59983;52.010;5.420;2023-06-10T05:27:23;8.53;;;5.90;;
72109;SDS011;59983;52.010;5.420;2023-06-10T05:29:50;9.88;;;6.38;;
72109;SDS011;59983;52.010;5.420;2023-06-10T05:32:17;5.95;;;5.40;;
72109;SDS011;59983;52.010;5.420;2023-06-10T05:34:44;11.50;;;5.97;;
72109;SDS011;59983;52.010;5.420;2023-06-10T05:37:12;9.48;;;6.22;;
72109;SDS011;59983;52.010;5.420;2023-06-10T05:39:39;9.80;;;5.80;;
72109;SDS011;59983;52.010;5.420;2023-06-10T05:42:06;7.95;;;6.13;;
72109;SDS011;59983;52.010;5.420;2023-06-10T05:44:34;6.80;;;6.30;;
72109;SDS011;59983;52.010;5.420;2023-06-10T05:47:01;6.35;;;5.80;;
72109;SDS011;59983;52.010;5.420;2023-06-10T05:49:27;6.20;;;5.70;;
72109;SDS011;59983;52.010;5.420;2023-06-10T05:51:55;6.30;;;5.80;;
72109;SDS011;59983;52.010;5.420;2023-06-10T05:54:23;6.72;;;5.63;;
72109;SDS011;59983;52.010;5.420;2023-06-10T05:56:52;7.95;;;6.25;;
72109;SDS011;59983;52.010;5.420;2023-06-10T05:59:18;6.57;;;5.10;;
72109;SDS011;59983;52.010;5.420;2023-06-10T06:01:45;8.25;;;5.10;;
72109;SDS011;59983;52.010;5.420;2023-06-10T06:04:11;8.83;;;5.43;;
72109;SDS011;59983;52.010;5.420;2023-06-10T06:06:39;5.85;;;5.22;;
72109;SDS011;59983;52.010;5.420;2023-06-10T06:09:06;10.85;;;7.13;;
72109;SDS011;59983;52.010;5.420;2023-06-10T06:11:33;6.05;;;5.47;;
72109;SDS011;59983;52.010;5.420;2023-06-10T06:14:00;5.78;;;5.28;;
72109;SDS011;59983;52.010;5.420;2023-06-10T06:16:27;6.67;;;5.70;;
72109;SDS011;59983;52.010;5.420;2023-06-10T06:18:54;8.65;;;6.30;;
72109;SDS011;59983;52.010;5.420;2023-06-10T06:21:20;7.38;;;6.32;;
72109;SDS011;59983;52.010;5.420;2023-06-10T06:23:47;9.00;;;5.50;;
72109;SDS011;59983;52.010;5.420;2023-06-10T06:26:14;6.43;;;5.80;;
72109;SDS011;59983;52.010;5.420;2023-06-10T06:28:40;7.13;;;5.77;;
72109;SDS011;59983;52.010;5.420;2023-06-10T06:31:07;6.90;;;6.00;;
72109;SDS011;59983;52.010;5.420;2023-06-10T06:33:34;6.45;;;5.65;;
72109;SDS011;59983;52.010;5.420;2023-06-10T06:36:00;6.43;;;5.63;;
72109;SDS011;59983;52.010;5.420;2023-06-10T06:38:27;5.60;;;5.10;;
72109;SDS011;59983;52.010;5.420;2023-06-10T06:40:53;6.27;;;5.27;;
72109;SDS011;59983;52.010;5.420;2023-06-10T06:43:20;6.13;;;5.43;;
72109;SDS011;59983;52.010;5.420;2023-06-10T06:45:46;6.43;;;5.88;;
72109;SDS011;59983;52.010;5.420;2023-06-10T06:48:13;5.85;;;4.90;;
72109;SDS011;59983;52.010;5.420;2023-06-10T06:50:40;7.22;;;5.88;;
72109;SDS011;59983;52.010;5.420;2023-06-10T06:53:08;6.10;;;5.50;;
72109;SDS011;59983;52.010;5.420;2023-06-10T06:55:34;10.23;;;5.45;;
72109;SDS011;59983;52.010;5.420;2023-06-10T06:58:01;5.70;;;5.10;;
72109;SDS011;59983;52.010;5.420;2023-06-10T07:00:30;7.82;;;4.80;;
72109;SDS011;59983;52.010;5.420;2023-06-10T07:02:57;6.13;;;5.07;;
72109;SDS011;59983;52.010;5.420;2023-06-10T07:05:24;7.23;;;4.37;;
72109;SDS011;59983;52.010;5.420;2023-06-10T07:07:53;5.50;;;4.50;;
72109;SDS011;59983;52.010;5.420;2023-06-10T07:10:22;7.57;;;4.40;;
72109;SDS011;59983;52.010;5.420;2023-06-10T07:12:52;9.02;;;4.38;;
72109;SDS011;59983;52.010;5.420;2023-06-10T07:15:19;5.75;;;5.10;;
72109;SDS011;59983;52.010;5.420;2023-06-10T07:17:46;5.37;;;4.87;;
72109;SDS011;59983;52.010;5.420;2023-06-10T07:20:13;6.45;;;5.15;;
72109;SDS011;59983;52.010;5.420;2023-06-10T07:22:41;5.93;;;4.88;;
72109;SDS011;59983;52.010;5.420;2023-06-10T07:25:08;5.43;;;4.93;;
72109;SDS011;59983;52.010;5.420;2023-06-10T07:27:36;7.78;;;5.32;;
72109;SDS011;59983;52.010;5.420;2023-06-10T07:30:04;9.20;;;5.40;;
72109;SDS011;59983;52.010;5.420;2023-06-10T07:32:33;5.40;;;4.90;;
72109;SDS011;59983;52.010;5.420;2023-06-10T07:35:00;6.47;;;5.32;;
72109;SDS011;59983;52.010;5.420;2023-06-10T07:37:26;9.63;;;4.75;;
72109;SDS011;59983;52.010;5.420;2023-06-10T07:39:53;4.90;;;4.30;;
72109;SDS011;59983;52.010;5.420;2023-06-10T07:42:20;6.00;;;4.83;;
72109;SDS011;59983;52.010;5.420;2023-06-10T07:44:46;5.57;;;5.07;;
72109;SDS011;59983;52.010;5.420;2023-06-10T07:47:13;6.35;;;4.78;;
72109;SDS011;59983;52.010;5.420;2023-06-10T07:49:39;8.05;;;5.30;;
72109;SDS011;59983;52.010;5.420;2023-06-10T07:52:08;6.80;;;5.15;;
72109;SDS011;59983;52.010;5.420;2023-06-10T07:54:34;6.50;;;4.80;;
72109;SDS011;59983;52.010;5.420;2023-06-10T07:57:01;8.05;;;4.97;;
72109;SDS011;59983;52.010;5.420;2023-06-10T07:59:28;5.20;;;4.55;;
72109;SDS011;59983;52.010;5.420;2023-06-10T08:01:55;13.18;;;5.13;;
72109;SDS011;59983;52.010;5.420;2023-06-10T08:04:21;7.68;;;4.68;;
72109;SDS011;59983;52.010;5.420;2023-06-10T08:06:49;5.80;;;4.80;;
72109;SDS011;59983;52.010;5.420;2023-06-10T08:09:16;9.05;;;4.75;;
72109;SDS011;59983;52.010;5.420;2023-06-10T08:11:42;5.28;;;3.83;;
72109;SDS011;59983;52.010;5.420;2023-06-10T08:14:09;5.65;;;4.40;;
72109;SDS011;59983;52.010;5.420;2023-06-10T08:16:35;6.05;;;4.53;;
72109;SDS011;59983;52.010;5.420;2023-06-10T08:19:03;6.37;;;5.43;;
72109;SDS011;59983;52.010;5.420;2023-06-10T08:21:29;5.35;;;4.43;;
72109;SDS011;59983;52.010;5.420;2023-06-10T08:23:56;9.75;;;4.78;;
72109;SDS011;59983;52.010;5.420;2023-06-10T08:26:23;4.70;;;4.22;;
72109;SDS011;59983;52.010;5.420;2023-06-10T08:28:50;4.35;;;3.95;;
72109;SDS011;59983;52.010;5.420;2023-06-10T08:31:16;4.50;;;4.03;;
72109;SDS011;59983;52.010;5.420;2023-06-10T08:33:43;6.95;;;3.95;;
72109;SDS011;59983;52.010;5.420;2023-06-10T08:36:09;5.35;;;3.80;;
72109;SDS011;59983;52.010;5.420;2023-06-10T08:38:36;6.65;;;4.20;;
72109;SDS011;59983;52.010;5.420;2023-06-10T08:41:04;7.43;;;4.10;;
72109;SDS011;59983;52.010;5.420;2023-06-10T08:43:33;8.70;;;4.50;;
72109;SDS011;59983;52.010;5.420;2023-06-10T08:46:05;6.72;;;4.50;;
72109;SDS011;59983;52.010;5.420;2023-06-10T08:48:35;4.30;;;3.90;;
72109;SDS011;59983;52.010;5.420;2023-06-10T08:51:09;9.02;;;4.45;;
72109;SDS011;59983;52.010;5.420;2023-06-10T08:53:37;4.63;;;4.05;;
72109;SDS011;59983;52.010;5.420;2023-06-10T08:56:10;8.20;;;3.97;;
72109;SDS011;59983;52.010;5.420;2023-06-10T08:58:38;4.95;;;4.43;;
72109;SDS011;59983;52.010;5.420;2023-06-10T09:01:07;4.68;;;3.50;;
72109;SDS011;59983;52.010;5.420;2023-06-10T09:03:38;4.25;;;3.80;;
72109;SDS011;59983;52.010;5.420;2023-06-10T09:06:06;6.40;;;3.90;;
72109;SDS011;59983;52.010;5.420;2023-06-10T09:08:33;4.50;;;3.97;;
72109;SDS011;59983;52.010;5.420;2023-06-10T09:11:01;4.30;;;3.90;;
72109;SDS011;59983;52.010;5.420;2023-06-10T09:13:28;5.40;;;3.90;;
72109;SDS011;59983;52.010;5.420;2023-06-10T09:15:55;8.65;;;4.13;;
72109;SDS011;59983;52.010;5.420;2023-06-10T09:18:27;7.05;;;3.90;;
72109;SDS011;59983;52.010;5.420;2023-06-10T09:20:54;7.37;;;3.83;;
72109;SDS011;59983;52.010;5.420;2023-06-10T09:23:21;4.90;;;3.67;;
72109;SDS011;59983;52.010;5.420;2023-06-10T09:25:53;4.82;;;3.67;;
72109;SDS011;59983;52.010;5.420;2023-06-10T09:28:22;4.82;;;3.58;;
72109;SDS011;59983;52.010;5.420;2023-06-10T09:30:49;6.22;;;4.22;;
72109;SDS011;59983;52.010;5.420;2023-06-10T09:33:15;6.33;;;4.23;;
72109;SDS011;59983;52.010;5.420;2023-06-10T09:35:46;6.43;;;3.67;;
72109;SDS011;59983;52.010;5.420;2023-06-10T09:38:19;4.13;;;3.58;;
72109;SDS011;59983;52.010;5.420;2023-06-10T09:40:50;5.85;;;3.67;;
72109;SDS011;59983;52.010;5.420;2023-06-10T09:43:17;4.30;;;3.88;;
72109;SDS011;59983;52.010;5.420;2023-06-10T09:45:46;5.50;;;3.70;;
72109;SDS011;59983;52.010;5.420;2023-06-10T09:48:14;3.90;;;3.58;;
72109;SDS011;59983;52.010;5.420;2023-06-10T09:50:42;4.13;;;3.22;;
72109;SDS011;59983;52.010;5.420;2023-06-10T09:53:10;4.78;;;4.10;;
72109;SDS011;59983;52.010;5.420;2023-06-10T09:55:40;6.22;;;3.80;;
72109;SDS011;59983;52.010;5.420;2023-06-10T09:58:08;4.97;;;3.43;;
72109;SDS011;59983;52.010;5.420;2023-06-10T10:00:34;15.77;;;4.00;;
72109;SDS011;59983;52.010;5.420;2023-06-10T10:03:01;5.40;;;3.85;;
72109;SDS011;59983;52.010;5.420;2023-06-10T10:05:28;4.53;;;3.60;;
72109;SDS011;59983;52.010;5.420;2023-06-10T10:07:56;6.05;;;3.83;;
72109;SDS011;59983;52.010;5.420;2023-06-10T10:10:23;8.03;;;3.77;;
72109;SDS011;59983;52.010;5.420;2023-06-10T10:12:56;6.28;;;3.85;;
72109;SDS011;59983;52.010;5.420;2023-06-10T10:15:23;5.40;;;3.90;;
72109;SDS011;59983;52.010;5.420;2023-06-10T10:18:28;8.05;;;3.35;;
72109;SDS011;59983;52.010;5.420;2023-06-10T10:20:55;3.92;;;3.38;;
72109;SDS011;59983;52.010;5.420;2023-06-10T10:23:29;6.37;;;3.50;;
72109;SDS011;59983;52.010;5.420;2023-06-10T10:26:02;5.95;;;3.55;;
72109;SDS011;59983;52.010;5.420;2023-06-10T10:28:45;8.02;;;3.63;;
72109;SDS011;59983;52.010;5.420;2023-06-10T10:31:18;4.32;;;3.50;;
72109;SDS011;59983;52.010;5.420;2023-06-10T10:33:57;4.07;;;3.42;;
72109;SDS011;59983;52.010;5.420;2023-06-10T10:36:26;5.13;;;4.23;;
72109;SDS011;59983;52.010;5.420;2023-06-10T10:38:54;3.85;;;3.53;;
72109;SDS011;59983;52.010;5.420;2023-06-10T10:41:21;3.72;;;3.42;;
72109;SDS011;59983;52.010;5.420;2023-06-10T10:43:49;4.05;;;3.50;;
72109;SDS011;59983;52.010;5.420;2023-06-10T10:46:17;4.88;;;3.55;;
72109;SDS011;59983;52.010;5.420;2023-06-10T10:48:44;6.93;;;3.73;;
72109;SDS011;59983;52.010;5.420;2023-06-10T10:51:17;5.03;;;3.80;;
72109;SDS011;59983;52.010;5.420;2023-06-10T10:53:44;3.95;;;3.40;;
72109;SDS011;59983;52.010;5.420;2023-06-10T10:57:09;3.65;;;3.35;;
72109;SDS011;59983;52.010;5.420;2023-06-10T10:59:52;4.15;;;3.70;;
72109;SDS011;59983;52.010;5.420;2023-06-10T11:02:32;4.83;;;3.40;;
72109;SDS011;59983;52.010;5.420;2023-06-10T11:05:02;4.57;;;3.30;;
72109;SDS011;59983;52.010;5.420;2023-06-10T11:07:31;7.93;;;3.47;;
72109;SDS011;59983;52.010;5.420;2023-06-10T11:09:59;4.60;;;3.78;;
72109;SDS011;59983;52.010;5.420;2023-06-10T11:12:42;6.00;;;3.70;;
72109;SDS011;59983;52.010;5.420;2023-06-10T11:15:19;7.33;;;3.93;;
72109;SDS011;59983;52.010;5.420;2023-06-10T11:31:20;6.00;;;3.80;;
72109;SDS011;59983;52.010;5.420;2023-06-10T11:33:47;3.85;;;3.55;;
72109;SDS011;59983;52.010;5.420;2023-06-10T11:36:14;4.03;;;3.63;;
72109;SDS011;59983;52.010;5.420;2023-06-10T11:38:41;4.28;;;3.65;;
72109;SDS011;59983;52.010;5.420;2023-06-10T11:41:10;3.47;;;3.17;;
72109;SDS011;59983;52.010;5.420;2023-06-10T11:43:40;4.80;;;3.50;;
72109;SDS011;59983;52.010;5.420;2023-06-10T11:46:09;4.53;;;3.45;;
72109;SDS011;59983;52.010;5.420;2023-06-10T11:48:36;4.97;;;3.40;;
72109;SDS011;59983;52.010;5.420;2023-06-10T11:51:06;4.82;;;3.35;;
72109;SDS011;59983;52.010;5.420;2023-06-10T11:53:34;6.33;;;3.87;;
72109;SDS011;59983;52.010;5.420;2023-06-10T11:56:01;3.88;;;3.45;;
72109;SDS011;59983;52.010;5.420;2023-06-10T11:58:27;5.13;;;3.25;;
72109;SDS011;59983;52.010;5.420;2023-06-10T12:00:54;5.03;;;3.40;;
72109;SDS011;59983;52.010;5.420;2023-06-10T12:03:25;3.40;;;3.10;;
72109;SDS011;59983;52.010;5.420;2023-06-10T12:05:57;4.20;;;3.27;;
72109;SDS011;59983;52.010;5.420;2023-06-10T12:08:26;4.15;;;3.20;;
72109;SDS011;59983;52.010;5.420;2023-06-10T12:10:53;3.40;;;2.95;;
72109;SDS011;59983;52.010;5.420;2023-06-10T12:13:21;4.05;;;3.05;;
72109;SDS011;59983;52.010;5.420;2023-06-10T12:15:49;4.13;;;3.40;;
72109;SDS011;59983;52.010;5.420;2023-06-10T12:18:19;3.73;;;3.13;;
72109;SDS011;59983;52.010;5.420;2023-06-10T12:20:47;3.40;;;3.10;;
72109;SDS011;59983;52.010;5.420;2023-06-10T12:23:15;3.45;;;2.85;;
72109;SDS011;59983;52.010;5.420;2023-06-10T12:25:52;4.60;;;3.58;;
72109;SDS011;59983;52.010;5.420;2023-06-10T12:28:20;5.20;;;3.40;;
72109;SDS011;59983;52.010;5.420;2023-06-10T12:30:51;3.80;;;3.20;;
72109;SDS011;59983;52.010;5.420;2023-06-10T12:33:18;2.65;;;2.45;;
72109;SDS011;59983;52.010;5.420;2023-06-10T12:35:52;5.88;;;3.05;;
72109;SDS011;59983;52.010;5.420;2023-06-10T12:38:22;3.40;;;3.10;;
72109;SDS011;59983;52.010;5.420;2023-06-10T12:41:03;3.58;;;2.92;;
72109;SDS011;59983;52.010;5.420;2023-06-10T12:43:32;7.17;;;2.80;;
72109;SDS011;59983;52.010;5.420;2023-06-10T12:46:08;4.38;;;2.35;;
72109;SDS011;59983;52.010;5.420;2023-06-10T12:48:48;4.07;;;2.63;;
72109;SDS011;59983;52.010;5.420;2023-06-10T12:51:17;4.57;;;2.58;;
72109;SDS011;59983;52.010;5.420;2023-06-10T12:53:44;3.10;;;2.50;;
72109;SDS011;59983;52.010;5.420;2023-06-10T12:56:11;4.57;;;2.70;;
72109;SDS011;59983;52.010;5.420;2023-06-10T12:58:38;3.30;;;2.40;;
72109;SDS011;59983;52.010;5.420;2023-06-10T13:01:05;3.53;;;2.40;;
72109;SDS011;59983;52.010;5.420;2023-06-10T13:03:31;4.13;;;2.30;;
72109;SDS011;59983;52.010;5.420;2023-06-10T13:05:58;3.35;;;2.40;;
72109;SDS011;59983;52.010;5.420;2023-06-10T13:08:24;3.93;;;2.60;;
72109;SDS011;59983;52.010;5.420;2023-06-10T13:10:51;3.33;;;2.65;;
72109;SDS011;59983;52.010;5.420;2023-06-10T13:13:17;3.55;;;2.35;;
72109;SDS011;59983;52.010;5.420;2023-06-10T13:15:44;5.57;;;2.63;;
72109;SDS011;59983;52.010;5.420;2023-06-10T13:18:11;3.88;;;2.58;;
72109;SDS011;59983;52.010;5.420;2023-06-10T13:20:38;4.53;;;2.33;;
72109;SDS011;59983;52.010;5.420;2023-06-10T13:23:05;4.07;;;2.45;;
72109;SDS011;59983;52.010;5.420;2023-06-10T13:25:31;4.72;;;2.30;;
72109;SDS011;59983;52.010;5.420;2023-06-10T13:27:58;4.28;;;2.33;;
72109;SDS011;59983;52.010;5.420;2023-06-10T13:30:25;4.65;;;2.20;;
72109;SDS011;59983;52.010;5.420;2023-06-10T13:32:52;5.57;;;2.70;;
72109;SDS011;59983;52.010;5.420;2023-06-10T13:35:19;5.35;;;2.72;;
72109;SDS011;59983;52.010;5.420;2023-06-10T13:37:45;7.22;;;2.20;;
72109;SDS011;59983;52.010;5.420;2023-06-10T13:40:12;7.65;;;2.50;;
72109;SDS011;59983;52.010;5.420;2023-06-10T13:42:38;3.13;;;2.58;;
72109;SDS011;59983;52.010;5.420;2023-06-10T13:45:05;4.60;;;2.37;;
72109;SDS011;59983;52.010;5.420;2023-06-10T13:47:33;6.38;;;2.33;;
72109;SDS011;59983;52.010;5.420;2023-06-10T13:50:00;7.93;;;2.60;;
72109;SDS011;59983;52.010;5.420;2023-06-10T13:52:26;3.15;;;2.13;;
72109;SDS011;59983;52.010;5.420;2023-06-10T13:54:53;4.38;;;2.22;;
72109;SDS011;59983;52.010;5.420;2023-06-10T13:57:19;5.80;;;2.23;;
72109;SDS011;59983;52.010;5.420;2023-06-10T13:59:46;2.30;;;1.98;;
72109;SDS011;59983;52.010;5.420;2023-06-10T14:02:12;4.13;;;1.90;;
72109;SDS011;59983;52.010;5.420;2023-06-10T14:04:39;4.05;;;2.00;;
72109;SDS011;59983;52.010;5.420;2023-06-10T14:07:06;2.92;;;2.00;;
72109;SDS011;59983;52.010;5.420;2023-06-10T14:09:32;3.70;;;2.40;;
72109;SDS011;59983;52.010;5.420;2023-06-10T14:11:59;3.55;;;2.33;;
72109;SDS011;59983;52.010;5.420;2023-06-10T14:14:26;3.22;;;1.92;;
72109;SDS011;59983;52.010;5.420;2023-06-10T14:16:52;6.00;;;1.95;;
72109;SDS011;59983;52.010;5.420;2023-06-10T14:19:19;4.18;;;2.17;;
72109;SDS011;59983;52.010;5.420;2023-06-10T14:21:46;3.20;;;2.33;;
72109;SDS011;59983;52.010;5.420;2023-06-10T14:24:13;3.80;;;2.13;;
72109;SDS011;59983;52.010;5.420;2023-06-10T14:26:40;8.63;;;2.55;;
72109;SDS011;59983;52.010;5.420;2023-06-10T14:29:06;7.03;;;2.60;;
72109;SDS011;59983;52.010;5.420;2023-06-10T14:31:33;2.90;;;2.60;;
72109;SDS011;59983;52.010;5.420;2023-06-10T14:33:59;4.00;;;2.63;;
72109;SDS011;59983;52.010;5.420;2023-06-10T14:36:26;4.50;;;2.60;;
72109;SDS011;59983;52.010;5.420;2023-06-10T14:38:53;4.70;;;2.95;;
72109;SDS011;59983;52.010;5.420;2023-06-10T14:41:20;4.00;;;3.13;;
72109;SDS011;59983;52.010;5.420;2023-06-10T14:43:48;3.00;;;2.63;;
72109;SDS011;59983;52.010;5.420;2023-06-10T14:46:15;4.47;;;3.20;;
72109;SDS011;59983;52.010;5.420;2023-06-10T14:48:41;5.85;;;3.05;;
72109;SDS011;59983;52.010;5.420;2023-06-10T14:51:08;3.38;;;2.88;;
72109;SDS011;59983;52.010;5.420;2023-06-10T14:53:35;4.10;;;2.97;;
72109;SDS011;59983;52.010;5.420;2023-06-10T14:56:01;4.57;;;3.38;;
72109;SDS011;59983;52.010;5.420;2023-06-10T14:58:28;6.20;;;3.30;;
72109;SDS011;59983;52.010;5.420;2023-06-10T15:00:54;6.30;;;3.25;;
72109;SDS011;59983;52.010;5.420;2023-06-10T15:03:21;3.05;;;2.80;;
72109;SDS011;59983;52.010;5.420;2023-06-10T15:05:47;11.88;;;3.15;;